TimeCST,TemperatureF,Dew PointF,Humidity,Sea Level PressureIn,VisibilityMPH,Wind Direction,Wind SpeedMPH,Gust SpeedMPH,PrecipitationIn,Events,Conditions,WindDirDegrees,DateUTC
12:53 AM,46.0,42.1,86,30.10,10.0,Variable,4.6,-,N/A,,Overcast,0,2013-01-27 06:53:00
1:53 AM,46.0,43.0,89,30.11,10.0,Calm,Calm,-,N/A,,Overcast,0,2013-01-27 07:53:00
2:53 AM,46.9,44.1,90,30.10,10.0,SSE,5.8,-,N/A,,Overcast,160,2013-01-27 08:53:00
3:53 AM,46.9,44.1,90,30.06,10.0,SE,6.9,-,N/A,,Overcast,140,2013-01-27 09:53:00
4:15 AM,46.4,44.6,93,30.06,10.0,Variable,4.6,-,N/A,,Overcast,0,2013-01-27 10:15:00
4:53 AM,48.0,45.0,89,30.06,10.0,SSE,5.8,-,N/A,,Overcast,150,2013-01-27 10:53:00
5:53 AM,50.0,46.9,89,30.06,10.0,South,9.2,16.1,N/A,,Overcast,180,2013-01-27 11:53:00
6:36 AM,50.0,46.4,87,30.06,9.0,South,10.4,17.3,N/A,,Overcast,180,2013-01-27 12:36:00
6:53 AM,50.0,48.0,93,30.06,8.0,South,8.1,16.1,0.00,Rain,Light Rain,170,2013-01-27 12:53:00
7:53 AM,52.0,48.9,89,30.05,8.0,South,11.5,20.7,0.00,Rain,Light Rain,170,2013-01-27 13:53:00
8:53 AM,52.0,50.0,93,30.08,6.0,South,8.1,-,0.00,,Overcast,190,2013-01-27 14:53:00
9:53 AM,53.1,51.1,93,30.07,3.0,South,12.7,21.9,N/A,,Overcast,180,2013-01-27 15:53:00
10:03 AM,53.6,51.8,94,30.07,2.5,South,11.5,17.3,N/A,,Overcast,180,2013-01-27 16:03:00
10:10 AM,53.6,51.8,94,30.07,3.0,South,12.7,26.5,N/A,,Overcast,170,2013-01-27 16:10:00
10:53 AM,54.0,51.1,90,30.05,8.0,South,12.7,23.0,N/A,,Overcast,170,2013-01-27 16:53:00
11:13 AM,55.4,51.8,88,30.04,10.0,South,12.7,21.9,N/A,,Overcast,180,2013-01-27 17:13:00
11:53 AM,57.0,52.0,83,30.03,10.0,South,13.8,25.3,N/A,,Overcast,180,2013-01-27 17:53:00
12:53 PM,55.9,51.1,84,30.00,10.0,South,12.7,19.6,N/A,,Overcast,170,2013-01-27 18:53:00
1:53 PM,57.0,53.1,87,29.97,9.0,South,13.8,23.0,0.00,,Overcast,170,2013-01-27 19:53:00
2:53 PM,59.0,54.0,83,29.94,10.0,SSE,11.5,21.9,N/A,,Overcast,160,2013-01-27 20:53:00
3:53 PM,60.1,55.0,83,29.94,10.0,South,9.2,18.4,N/A,,Overcast,180,2013-01-27 21:53:00
4:01 PM,60.8,55.4,82,29.94,10.0,South,8.1,19.6,N/A,,Overcast,170,2013-01-27 22:01:00
4:53 PM,61.0,55.9,83,29.94,10.0,South,10.4,19.6,N/A,,Overcast,170,2013-01-27 22:53:00
5:53 PM,61.0,55.0,81,29.93,8.0,SSE,10.4,18.4,N/A,,Overcast,150,2013-01-27 23:53:00
6:02 PM,60.8,55.4,82,29.94,8.0,SSE,9.2,17.3,N/A,,Overcast,150,2013-01-28 00:02:00
6:53 PM,60.1,55.0,83,29.94,8.0,SSE,9.2,-,N/A,,Overcast,150,2013-01-28 00:53:00
7:53 PM,61.0,55.9,83,29.94,9.0,SSE,9.2,-,N/A,,Overcast,150,2013-01-28 01:53:00
8:53 PM,62.1,55.9,80,29.94,10.0,SSE,10.4,20.7,N/A,,Scattered Clouds,160,2013-01-28 02:53:00
9:53 PM,63.0,55.9,78,29.92,10.0,SSE,8.1,20.7,N/A,,Partly Cloudy,150,2013-01-28 03:53:00
10:53 PM,64.0,57.0,78,29.93,10.0,South,11.5,17.3,N/A,,Mostly Cloudy,170,2013-01-28 04:53:00
11:53 PM,64.9,57.9,78,29.93,10.0,South,12.7,19.6,N/A,,Mostly Cloudy,170,2013-01-28 05:53:00